Farmington, MO

8:53 PM CST on February 10, 2016 (GMT -0600)
Farmington Regional | | Change Station
CLOSE
Current Station
Airport
Location: Farmington,
Elevation: 945 ft
Nearby Weather Stations

Elev 945 ft 37.76 °N, 90.43 °W | Updated 52 minutes ago

Overcast
Overcast
24 °F
Feels Like 18 °F
N
5
Wind Variable Wind from SE

Today
High -- | Low -- °F
--% Chance of Precip.
Yesterday
High -- | Low -- °F
Precip. -- in
Pressure 30.13 in
Visibility 10.0 miles
Clouds Overcast 5500 ft
Windchill 18 °F
Dew Point 18 °F
Humidity 77%
Rainfall 0.05 in
Snow Depth Not available.
6:57 AM 5:34 PM
Waxing Crescent, 8% visible
METAR KFAM 110201Z AUTO 13004KT 10SM OVC055 M04/M08 A3013 RMK AO2 SLPNO T10441078 FZRANO
Pressure 30.13 in
Visibility 10.0 miles
Clouds Overcast 5500 ft
Windchill 18 °F
Dew Point 18 °F
Humidity 77%
Rainfall 0.05 in
Snow Depth Not available.
6:57 AM 5:34 PM
Waxing Crescent, 8% visible
METAR KFAM 110201Z AUTO 13004KT 10SM OVC055 M04/M08 A3013 RMK AO2 SLPNO T10441078 FZRANO

10-Day Weather Forecast

Almanac

Astronomy

Feb. 10, 2016 Rise Set
Actual Time
Civil Twilight
Nautical Twilight
Astronomical Twilight
Moon
Length of Visible Light
Length of Day
Tomorrow will be .
, % of the Moon is Illuminated

Today's Extremes

State Highs State Lows

Community

WunderPhotos

Upload Photos

1,891,986 photos uploaded!

WunderBlog® & News

Nearby

Air Quality

  Air Quality AQ Index Pollutant
Not available.

Snow Depth

Station Depth Elevation

Earthquake Activity

City Distance Mag. Time & Date
Minimum magnitude displayed is 2.5.

Coastal Water Temperatures

Place Temperature

Stations

Nearby Weather Stations

Station Location Temp. Windchill Dew Point Humidity Wind Precip. Elev Updated Type
                   

Watches & Warnings

There are currently no watches in effect.